Latest Coastal Weather Observations for Milingimbi

IDD60701

Issued at 1:25 pm CST Friday 1 August 2014 (issued every 10 minutes, with the page automatically refreshed every 10 minutes)

About coastal observations | Map of coastal stations | Coastal observations for NT | Marine services | Other Formats
Station Details ID: 014404 Name: MILINGIMBI AIRPORT Lat: -12.09 Lon: 134.89 Height: 15.0 m
Data from the previous 72 hours. | See also: Recent months at Milingimbi
Date/Time
CST
Temp

°C
Wind Pressure Rain
since 9am
mm
Weather Cloud Vis
km
Sea
Height
m
Swell
Dir
 
Speed
knots
Gust
knots
hPa Trend Height
m
Period
s
Dir
01/01:00pm 28.6 ENE 7 11 1014.4 - 0.0 - - - - - - -
01/12:30pm 29.1 E 8 16 1014.6 - 0.0 - - - - - - -
01/12:00pm 28.3 E 8 14 1014.9 - 0.0 - - - - - - -
01/11:30am 27.8 E 8 13 1015.5 - 0.0 - - - - - - -
01/11:00am 27.3 E 8 12 1015.7 - 0.0 - - - - - - -
01/10:30am 27.6 E 7 11 1015.9 - 0.0 - - - - - - -
01/10:00am 27.0 E 8 12 1015.9 - 0.0 - - - - - - -
01/09:30am 26.3 E 7 11 1015.9 - 0.0 - - - - - - -
01/09:00am 25.8 ENE 6 9 1015.6 - 0.0 - - - - - - -
01/08:30am 24.8 E 5 9 1015.4 - 0.0 - - - - - - -
01/08:00am 22.8 ESE 2 4 1015.1 - 0.0 - - - - - - -
01/07:30am 21.6 E 2 4 1014.9 - 0.0 - - - - - - -
01/07:00am 20.9 SSE 3 5 1014.8 - 0.0 - - - - - - -
01/06:30am 21.3 SSE 3 5 1014.4 - 0.0 - - - - - - -
01/06:00am 22.2 ESE 4 6 1014.1 - 0.0 - - - - - - -
01/05:30am 22.5 ESE 5 8 1014.0 - 0.0 - - - - - - -
01/05:00am 22.6 E 5 7 1013.9 - 0.0 - - - - - - -
01/04:30am 22.8 E 6 8 1013.8 - 0.0 - - - - - - -
01/04:00am 22.9 E 6 9 1013.9 - 0.0 - - - - - - -
01/03:30am 23.0 E 5 7 1014.0 - 0.0 - - - - - - -
01/03:00am 23.2 E 6 13 1013.9 - 0.0 - - - - - - -
01/02:30am 23.4 E 7 11 1014.1 - 0.0 - - - - - - -
01/02:00am 23.6 E 7 11 1014.2 - 0.0 - - - - - - -
01/01:30am 23.6 E 8 13 1014.2 - 0.0 - - - - - - -
01/01:00am 23.9 E 7 10 1014.4 - 0.0 - - - - - - -
01/12:30am 24.2 E 7 11 1014.5 - 0.0 - - - - - - -
01/12:00am 24.5 ESE 7 11 1014.4 - 0.0 - - - - - - -
 
Date/Time
CST
Temp

°C
Wind Pressure Rain
since 9am
mm
Weather Cloud Vis
km
Sea
Height
m
Swell
Dir
 
Speed
knots
Gust
knots
hPa Trend Height
m
Period
s
Dir
31/11:30pm 24.6 E 7 11 1014.5 - 0.0 - - - - - - -
31/11:00pm 24.8 E 7 11 1014.6 - 0.0 - - - - - - -
31/10:30pm 24.9 E 8 13 1014.6 - 0.0 - - - - - - -
31/10:00pm 25.2 E 6 11 1014.8 - 0.0 - - - - - - -
31/09:30pm 25.4 ENE 8 14 1014.6 - 0.0 - - - - - - -
31/09:00pm 25.3 ENE 6 13 1014.2 - 0.0 - - - - - - -
31/08:30pm 25.1 NE 6 9 1014.1 - 0.0 - - - - - - -
31/08:00pm 24.8 ENE 4 6 1013.7 - 0.0 - - - - - - -
31/07:30pm 24.8 NE 3 5 1013.4 - 0.0 - - - - - - -
31/07:00pm 25.3 CALM 0 0 1013.0 - 0.0 - - - - - - -
31/06:30pm 25.8 NNE 3 4 1012.8 - 0.0 - - - - - - -
31/06:00pm 26.6 N 4 6 1012.4 - 0.0 - - - - - - -
31/05:30pm 27.4 NNE 5 8 1012.2 - 0.0 - - - - - - -
31/05:00pm 27.7 NE 7 11 1012.1 - 0.0 - - - - - - -
31/04:30pm 28.4 NE 7 11 1012.2 - 0.0 - - - - - - -
31/04:00pm 28.6 NE 8 14 1012.3 - 0.0 - - - - - - -
31/03:30pm 29.2 ENE 8 11 1012.3 - 0.0 - - - - - - -
31/03:00pm 29.0 ENE 9 13 1012.5 - 0.0 - - - - - - -
31/02:30pm 29.0 ENE 8 11 1013.0 - 0.0 - - - - - - -
31/02:00pm 28.8 ESE 8 13 1013.3 - 0.0 - - - - - - -
31/01:30pm 29.2 ESE 9 14 1013.8 - 0.0 - - - - - - -
31/01:00pm 29.7 ESE 10 16 1014.2 - 0.0 - - - - - - -
31/12:30pm 29.0 E 9 13 1014.7 - 0.0 - - - - - - -
31/12:00pm 27.9 E 7 13 1015.1 - 0.0 - - - - - - -
31/11:30am 27.2 E 7 12 1015.4 - 0.0 - - - - - - -
31/11:00am 27.1 E 6 9 1015.7 - 0.0 - - - - - - -
31/10:30am 26.7 E 6 10 1015.9 - 0.0 - - - - - - -
31/10:00am 26.2 E 6 10 1016.1 - 0.0 - - - - - - -
31/09:30am 25.9 E 7 11 1016.1 - 0.0 - - - - - - -
31/09:00am 25.2 E 8 13 1015.7 - 0.0 - - - - - - -
31/08:30am 25.0 E 6 9 1015.6 - 0.0 - - - - - - -
31/08:00am 23.9 E 5 8 1015.5 - 0.0 - - - - - - -
31/07:30am 22.7 E 4 5 1015.4 - 0.0 - - - - - - -
31/07:00am 21.8 ENE 3 4 1015.3 - 0.0 - - - - - - -
31/06:30am 22.0 E 4 5 1015.1 - 0.0 - - - - - - -
31/06:00am 22.1 E 4 6 1014.7 - 0.0 - - - - - - -
31/05:30am 22.2 E 4 6 1014.7 - 0.0 - - - - - - -
31/05:00am 22.3 E 4 7 1014.5 - 0.0 - - - - - - -
31/04:30am 22.4 E 4 7 1014.5 - 0.0 - - - - - - -
31/04:00am 22.5 E 4 7 1014.5 - 0.0 - - - - - - -
31/03:30am 22.7 E 5 8 1014.5 - 0.0 - - - - - - -
31/03:00am 22.9 E 5 8 1014.6 - 0.0 - - - - - - -
31/02:30am 23.1 ESE 6 9 1014.6 - 0.0 - - - - - - -
31/02:00am 23.3 E 7 11 1014.7 - 0.0 - - - - - - -
31/01:30am 23.4 E 7 10 1014.8 - 0.0 - - - - - - -
31/01:00am 23.6 ESE 7 11 1015.0 - 0.0 - - - - - - -
31/12:30am 23.7 E 7 11 1015.1 - 0.0 - - - - - - -
31/12:00am 24.0 ESE 8 11 1015.2 - 0.0 - - - - - - -
 
Date/Time
CST
Temp

°C
Wind Pressure Rain
since 9am
mm
Weather Cloud Vis
km
Sea
Height
m
Swell
Dir
 
Speed
knots
Gust
knots
hPa Trend Height
m
Period
s
Dir
30/11:30pm 24.4 ESE 8 13 1015.4 - 0.0 - - - - - - -
30/11:00pm 24.3 ESE 5 7 1015.6 - 0.0 - - - - - - -
30/10:30pm 24.6 E 5 9 1015.7 - 0.0 - - - - - - -
30/10:00pm 24.7 E 5 8 1015.6 - 0.0 - - - - - - -
30/09:30pm 24.9 E 5 9 1015.5 - 0.0 - - - - - - -
30/09:00pm 25.0 E 6 11 1015.2 - 0.0 - - - - - - -
30/08:30pm 25.2 E 6 13 1015.0 - 0.0 - - - - - - -
30/08:00pm 25.4 ENE 7 11 1014.6 - 0.0 - - - - - - -
30/07:30pm 25.5 ENE 7 12 1014.1 - 0.0 - - - - - - -
30/07:00pm 25.4 ENE 5 7 1013.6 - 0.0 - - - - - - -
30/06:30pm 25.7 ENE 6 11 1013.3 - 0.0 - - - - - - -
30/06:00pm 26.1 NE 6 11 1013.1 - 0.0 - - - - - - -
30/05:30pm 26.7 ENE 7 12 1013.0 - 0.0 - - - - - - -
30/05:00pm 27.5 ENE 7 11 1012.8 - 0.0 - - - - - - -
30/04:30pm 28.4 ENE 7 14 1012.6 - 0.0 - - - - - - -
30/04:00pm 29.7 ENE 6 11 1012.6 - 0.0 - - - - - - -
30/03:30pm 29.6 NE 6 10 1012.7 - 0.0 - - - - - - -
30/03:00pm 29.8 E 6 11 1012.6 - 0.0 - - - - - - -
30/02:30pm 30.4 E 7 12 1013.0 - 0.0 - - - - - - -
30/02:00pm 29.1 ENE 7 10 1013.4 - 0.0 - - - - - - -
30/01:30pm 28.9 E 8 14 1014.0 - 0.0 - - - - - - -
30/01:00pm 29.7 E 9 15 1014.3 - 0.0 - - - - - - -
30/12:30pm 29.8 ESE 10 19 1014.7 - 0.0 - - - - - - -
30/12:00pm 29.1 ESE 9 14 1014.9 - 0.0 - - - - - - -
30/11:30am 27.8 ESE 10 15 1015.5 - 0.0 - - - - - - -
30/11:00am 27.2 ESE 10 16 1015.8 - 0.0 - - - - - - -
30/10:30am 26.9 ESE 11 16 1016.1 - 0.0 - - - - - - -
30/10:00am 26.3 ESE 10 16 1016.4 - 0.0 - - - - - - -
30/09:30am 25.4 ESE 10 15 1016.5 - 0.0 - - - - - - -
30/09:00am 23.3 SE 8 11 1016.5 - 0.0 - - - - - - -
30/08:30am 21.8 SE 6 9 1016.4 - 0.0 - - - - - - -
30/08:00am 20.1 SE 7 10 1016.1 - 0.0 - - - - - - -
30/07:30am 20.2 SSE 5 6 1015.9 - 0.0 - - - - - - -
30/07:00am 20.3 SSE 4 5 1015.6 - 0.0 - - - - - - -
30/06:30am 20.5 SSE 4 6 1015.3 - 0.0 - - - - - - -
30/06:00am 20.8 SSE 5 6 1015.0 - 0.0 - - - - - - -
30/05:30am 20.9 SE 5 7 1014.8 - 0.0 - - - - - - -
30/05:00am 21.0 SE 5 6 1014.6 - 0.0 - - - - - - -
30/04:30am 21.3 SE 7 9 1014.4 - 0.0 - - - - - - -
30/04:00am 21.5 SE 7 9 1014.5 - 0.0 - - - - - - -
30/03:30am 21.6 SE 6 8 1014.4 - 0.0 - - - - - - -
30/03:00am 21.4 SE 6 8 1014.4 - 0.0 - - - - - - -
30/02:30am 21.6 SE 6 7 1014.6 - 0.0 - - - - - - -
30/02:00am 21.8 SE 6 8 1014.8 - 0.0 - - - - - - -
30/01:30am 22.2 SE 6 8 1015.2 - 0.0 - - - - - - -
30/01:00am 22.5 SSE 7 9 1015.5 - 0.0 - - - - - - -
30/12:30am 22.8 SE 7 9 1015.6 - 0.0 - - - - - - -
30/12:00am 23.1 SE 7 9 1015.7 - 0.0 - - - - - - -
 
Date/Time
CST
Temp

°C
Wind Pressure Rain
since 9am
mm
Weather Cloud Vis
km
Sea
Height
m
Swell
Dir
 
Speed
knots
Gust
knots
hPa Trend Height
m
Period
s
Dir
29/11:30pm 23.4 SE 7 9 1015.9 - 0.0 - - - - - - -
29/11:00pm 23.7 SE 8 11 1015.9 - 0.0 - - - - - - -
29/10:30pm 24.0 SE 8 11 1016.0 - 0.0 - - - - - - -
29/10:00pm 24.2 SE 7 9 1015.9 - 0.0 - - - - - - -
29/09:30pm 24.5 SE 7 9 1015.9 - 0.0 - - - - - - -
29/09:00pm 25.2 SE 7 11 1015.8 - 0.0 - - - - - - -
29/08:30pm 25.8 ESE 9 13 1015.8 - 0.0 - - - - - - -
29/08:00pm 26.2 ESE 10 14 1015.6 - 0.0 - - - - - - -
29/07:30pm 26.5 ESE 10 14 1015.3 - 0.0 - - - - - - -
29/07:00pm 27.2 SE 10 15 1014.7 - 0.0 - - - - - - -
29/06:30pm 27.3 ESE 10 16 1014.4 - 0.0 - - - - - - -
29/06:00pm 28.0 SE 11 17 1013.9 - 0.0 - - - - - - -
29/05:30pm 28.3 ESE 10 16 1013.7 - 0.0 - - - - - - -
29/05:00pm 28.1 E 8 11 1013.5 - 0.0 - - - - - - -
29/04:30pm 29.5 E 8 15 1013.1 - 0.0 - - - - - - -
29/04:00pm 29.1 E 9 15 1013.0 - 0.0 - - - - - - -
29/03:30pm 29.7 E 9 14 1013.1 - 0.0 - - - - - - -
29/03:00pm 30.1 E 9 15 1013.2 - 0.0 - - - - - - -
29/02:30pm 29.1 E 8 14 1013.6 - 0.0 - - - - - - -
29/02:00pm 28.6 ENE 10 16 1014.1 - 0.0 - - - - - - -
29/01:30pm 29.1 ENE 8 11 1014.5 - 0.0 - - - - - - -

Other Formats:

Comma delimited format used in spreadsheet applications
http://www.bom.gov.au/fwo/IDD60701/IDD60701.94140.axf

JavaScript Object Notation format (JSON) in row-major order
http://www.bom.gov.au/fwo/IDD60701/IDD60701.94140.json